createdAt,value
2023-01-07T00:01:08.106Z,-0.97
2023-01-07T00:04:16.627Z,-1.55
2023-01-07T00:07:22.828Z,-2.38
2023-01-07T00:10:29.339Z,-2.13
2023-01-07T00:13:37.764Z,-1.98
2023-01-07T00:16:44.224Z,-2.32
2023-01-07T00:19:50.556Z,-1.97
2023-01-07T00:22:56.519Z,-1.63
2023-01-07T00:26:04.447Z,-1.71
2023-01-07T00:29:12.196Z,-1.64
2023-01-07T00:32:18.372Z,-1.41
2023-01-07T00:35:24.848Z,-1.27
2023-01-07T00:38:31.224Z,-1.19
2023-01-07T00:41:37.757Z,-1.24
2023-01-07T00:44:45.647Z,-1.07
2023-01-07T00:47:53.654Z,-1.10
2023-01-07T00:51:00.018Z,-1.00
2023-01-07T00:54:06.409Z,-1.21
2023-01-07T00:57:14.088Z,-1.82
2023-01-07T01:00:23.565Z,-1.85
2023-01-07T01:03:31.288Z,-2.68
2023-01-07T01:06:37.807Z,-2.86
2023-01-07T01:09:43.861Z,-2.69
2023-01-07T01:12:50.357Z,-2.04
2023-01-07T01:15:58.103Z,-1.97
2023-01-07T01:19:04.842Z,-2.21
2023-01-07T01:22:11.258Z,-1.48
2023-01-07T01:25:17.796Z,-1.37
2023-01-07T01:28:23.935Z,-1.67
2023-01-07T01:31:31.570Z,-1.42
2023-01-07T01:34:38.180Z,-1.60
2023-01-07T01:37:44.778Z,-1.36
2023-01-07T01:40:50.983Z,-1.31
2023-01-07T01:43:57.097Z,-1.34
2023-01-07T01:47:07.722Z,-1.46
2023-01-07T01:50:20.017Z,-1.64
2023-01-07T01:53:31.019Z,-2.22
2023-01-07T01:56:41.211Z,-2.74
2023-01-07T01:59:50.732Z,-2.84
2023-01-07T02:03:00.084Z,-2.46
2023-01-07T02:06:07.401Z,-2.23
2023-01-07T02:09:13.931Z,-2.90
2023-01-07T02:12:40.581Z,-1.90
2023-01-07T02:15:55.689Z,-2.02
2023-01-07T02:19:43.387Z,-2.41
2023-01-07T02:23:18.446Z,-2.17
2023-01-07T02:26:59.153Z,-2.17
2023-01-07T02:30:46.449Z,-2.05
2023-01-07T02:34:00.198Z,-1.98
2023-01-07T02:37:14.303Z,-2.14
2023-01-07T02:40:26.246Z,-2.24
2023-01-07T02:43:41.369Z,-2.36
2023-01-07T02:46:53.065Z,-1.98
2023-01-07T02:50:00.599Z,-2.56
2023-01-07T02:53:09.490Z,-2.30
2023-01-07T02:56:28.474Z,-2.69
2023-01-07T03:00:05.615Z,-3.19
2023-01-07T03:03:25.919Z,-2.80
2023-01-07T03:06:48.210Z,-2.75
2023-01-07T03:10:04.007Z,-2.42
2023-01-07T03:13:15.792Z,-2.45
2023-01-07T03:16:27.634Z,-3.05
2023-01-07T03:19:37.529Z,-2.88
2023-01-07T03:22:48.132Z,-2.59
2023-01-07T03:25:56.817Z,-2.57
2023-01-07T03:29:06.029Z,-2.51
2023-01-07T03:32:16.789Z,-2.92
2023-01-07T03:35:24.411Z,-3.39
2023-01-07T03:38:32.942Z,-3.35
2023-01-07T03:42:02.517Z,-3.87
2023-01-07T03:45:12.553Z,-3.01
2023-01-07T03:48:18.699Z,-2.88
2023-01-07T03:51:25.227Z,-2.72
2023-01-07T03:54:32.951Z,-2.26
2023-01-07T03:57:39.467Z,-2.94
2023-01-07T04:00:46.118Z,-3.30
2023-01-07T04:03:52.539Z,-3.48
2023-01-07T04:06:59.163Z,-3.96
2023-01-07T04:10:08.898Z,-3.32
2023-01-07T04:13:15.466Z,-3.88
2023-01-07T04:16:22.102Z,-4.26
2023-01-07T04:19:28.339Z,-3.63
2023-01-07T04:22:34.986Z,-3.44
2023-01-07T04:25:42.943Z,-2.94
2023-01-07T04:28:49.081Z,-2.93
2023-01-07T04:31:55.425Z,-2.69
2023-01-07T04:35:01.563Z,-3.30
2023-01-07T04:38:08.097Z,-3.18
2023-01-07T04:41:16.413Z,-3.46
2023-01-07T04:44:22.867Z,-4.26
2023-01-07T04:47:29.017Z,-3.46
2023-01-07T04:50:35.576Z,-3.89
2023-01-07T04:53:41.796Z,-3.69
2023-01-07T04:56:49.739Z,-3.42
2023-01-07T04:59:56.257Z,-3.51
2023-01-07T05:03:02.478Z,-3.58
2023-01-07T05:06:09.558Z,-3.20
2023-01-07T05:09:15.915Z,-2.77
2023-01-07T05:12:23.557Z,-2.59
2023-01-07T05:15:29.854Z,-2.48
2023-01-07T05:18:36.412Z,-3.63
2023-01-07T05:21:43.289Z,-3.83
2023-01-07T05:24:49.619Z,-3.88
2023-01-07T05:27:57.262Z,-3.03
2023-01-07T05:31:03.465Z,-3.12
2023-01-07T05:34:09.812Z,-2.90
2023-01-07T05:37:16.317Z,-2.97
2023-01-07T05:40:22.416Z,-3.05
2023-01-07T05:43:29.836Z,-3.69
2023-01-07T05:46:36.205Z,-3.91
2023-01-07T05:49:42.322Z,-3.99
2023-01-07T05:52:48.575Z,-3.59
2023-01-07T05:55:57.745Z,-3.94
2023-01-07T05:59:05.669Z,-3.50
2023-01-07T06:02:12.005Z,-3.52
2023-01-07T06:05:18.338Z,-3.16
2023-01-07T06:08:24.787Z,-3.81
2023-01-07T06:11:31.395Z,-4.14
2023-01-07T06:14:39.359Z,-4.37
2023-01-07T06:17:46.057Z,-3.72
2023-01-07T06:20:52.466Z,-3.34
2023-01-07T06:23:58.903Z,-3.03
2023-01-07T06:27:05.582Z,-3.26
2023-01-07T06:30:14.097Z,-3.65
2023-01-07T06:33:20.667Z,-3.55
2023-01-07T06:36:27.150Z,-3.38
2023-01-07T06:39:33.269Z,-3.44
2023-01-07T06:42:39.608Z,-3.35
2023-01-07T06:45:47.282Z,-3.28
2023-01-07T06:48:53.907Z,-3.15
2023-01-07T06:52:00.115Z,-2.57
2023-01-07T06:55:06.605Z,-2.32
2023-01-07T06:58:13.044Z,-1.73
2023-01-07T07:01:21.720Z,-1.61
2023-01-07T07:04:28.412Z,-1.66
2023-01-07T07:07:34.911Z,-1.18
2023-01-07T07:10:41.371Z,-1.28
2023-01-07T07:13:47.506Z,-0.94
2023-01-07T07:16:55.141Z,-0.77
2023-01-07T07:20:01.731Z,-0.67
2023-01-07T07:23:07.965Z,-0.47
2023-01-07T07:26:15.075Z,-0.55
2023-01-07T07:29:21.924Z,-0.62
2023-01-07T07:32:29.937Z,-0.80
2023-01-07T07:35:36.449Z,-0.29
2023-01-07T07:38:42.994Z,-0.61
2023-01-07T07:41:49.243Z,-0.32
2023-01-07T07:44:55.714Z,-0.04
2023-01-07T07:48:03.235Z,0.17
2023-01-07T07:51:09.776Z,0.15
2023-01-07T07:54:16.095Z,0.24
2023-01-07T07:57:22.178Z,0.64
2023-01-07T08:00:28.030Z,0.69
2023-01-07T08:03:35.724Z,0.90
2023-01-07T08:06:42.181Z,1.35
2023-01-07T08:09:48.419Z,1.01
2023-01-07T08:12:54.703Z,1.34
2023-01-07T08:16:00.949Z,1.63
2023-01-07T08:19:08.503Z,1.96
2023-01-07T08:22:14.592Z,1.88
2023-01-07T08:25:20.984Z,1.96
2023-01-07T08:28:27.227Z,1.78
2023-01-07T08:31:33.971Z,1.83
2023-01-07T08:34:41.511Z,1.94
2023-01-07T08:37:48.068Z,2.17
2023-01-07T08:40:54.534Z,2.57
2023-01-07T08:44:00.802Z,2.65
2023-01-07T08:47:06.990Z,3.08
2023-01-07T08:50:14.848Z,3.09
2023-01-07T08:53:21.916Z,3.15
2023-01-07T08:56:28.052Z,3.11
2023-01-07T08:59:34.615Z,3.47
2023-01-07T09:02:40.666Z,3.70
2023-01-07T09:05:49.115Z,3.81
2023-01-07T09:08:55.443Z,4.12
2023-01-07T09:12:01.758Z,3.61
2023-01-07T09:15:09.883Z,3.91
2023-01-07T09:18:16.257Z,3.96
2023-01-07T09:21:23.967Z,4.27
2023-01-07T09:24:30.047Z,4.33
2023-01-07T09:27:37.427Z,4.42
2023-01-07T09:30:43.573Z,4.28
2023-01-07T09:33:50.323Z,4.65
2023-01-07T09:36:58.044Z,4.41
2023-01-07T09:40:04.812Z,4.57
2023-01-07T09:43:17.792Z,4.84
2023-01-07T09:46:24.771Z,5.05
2023-01-07T09:49:32.703Z,5.18
2023-01-07T09:52:44.988Z,5.47
2023-01-07T09:56:11.791Z,5.54
2023-01-07T09:59:20.830Z,5.76
2023-01-07T10:02:38.002Z,5.58
2023-01-07T10:05:57.455Z,5.62
2023-01-07T10:09:13.808Z,6.01
2023-01-07T10:12:28.002Z,6.38
2023-01-07T10:15:48.925Z,6.49
2023-01-07T10:19:02.903Z,6.66
2023-01-07T10:22:16.699Z,6.51
2023-01-07T10:25:29.200Z,6.77
2023-01-07T10:28:41.600Z,7.36
2023-01-07T10:31:48.409Z,6.95
2023-01-07T10:34:58.275Z,6.90
2023-01-07T10:38:06.912Z,6.96
2023-01-07T10:41:22.757Z,7.84
2023-01-07T10:44:53.818Z,7.13
2023-01-07T10:48:26.638Z,7.74
2023-01-07T10:51:54.723Z,7.56
2023-01-07T10:55:29.634Z,8.46
2023-01-07T10:58:41.794Z,8.29
2023-01-07T11:01:53.129Z,8.56
2023-01-07T11:05:01.088Z,8.44
2023-01-07T11:08:16.792Z,8.76
2023-01-07T11:11:25.500Z,8.55
2023-01-07T11:14:37.793Z,8.59
2023-01-07T11:17:50.307Z,9.08
2023-01-07T11:20:58.091Z,9.58
2023-01-07T11:24:32.831Z,8.46
2023-01-07T11:27:46.860Z,8.46
2023-01-07T11:31:00.411Z,8.69
2023-01-07T11:34:06.781Z,9.58
2023-01-07T11:37:31.004Z,9.90
2023-01-07T11:40:37.698Z,9.85
2023-01-07T11:43:50.231Z,10.06
2023-01-07T11:46:58.128Z,10.09
2023-01-07T11:50:04.751Z,10.04
2023-01-07T11:53:27.783Z,10.30
2023-01-07T11:56:35.067Z,10.52
2023-01-07T11:59:41.294Z,10.19
2023-01-07T12:03:01.750Z,10.61
2023-01-07T12:06:15.936Z,10.48
2023-01-07T12:09:27.014Z,11.07
2023-01-07T12:12:34.812Z,10.77
2023-01-07T12:15:53.194Z,10.92
2023-01-07T12:19:25.088Z,11.08
2023-01-07T12:22:42.235Z,10.75
2023-01-07T12:25:57.953Z,11.21
2023-01-07T12:29:17.267Z,11.08
2023-01-07T12:32:37.167Z,11.47
2023-01-07T12:35:46.097Z,10.83
2023-01-07T12:38:57.555Z,10.95
2023-01-07T12:42:09.459Z,11.25
2023-01-07T12:45:20.860Z,11.92
2023-01-07T12:48:37.542Z,11.33
2023-01-07T12:51:51.305Z,11.63
2023-01-07T12:55:03.114Z,11.89
2023-01-07T12:58:18.388Z,11.62
2023-01-07T13:01:30.247Z,12.31
2023-01-07T13:04:47.937Z,12.24
2023-01-07T13:08:04.290Z,12.46
2023-01-07T13:11:41.027Z,12.62
2023-01-07T13:14:52.190Z,11.46
2023-01-07T13:18:00.619Z,12.15
2023-01-07T13:21:09.965Z,12.42
2023-01-07T13:24:55.671Z,12.26
2023-01-07T13:28:17.858Z,12.42
2023-01-07T13:31:42.770Z,12.24
2023-01-07T13:35:04.259Z,11.87
2023-01-07T13:38:52.904Z,11.84
2023-01-07T13:42:15.167Z,12.65
2023-01-07T13:45:24.796Z,11.37
2023-01-07T13:48:34.805Z,10.86
2023-01-07T13:51:41.176Z,10.03
2023-01-07T13:54:59.431Z,9.83
2023-01-07T13:58:44.095Z,9.06
2023-01-07T14:02:21.985Z,8.99
2023-01-07T14:05:29.730Z,7.74
2023-01-07T14:08:36.186Z,7.51
2023-01-07T14:11:59.546Z,7.49
2023-01-07T14:15:39.265Z,7.50
2023-01-07T14:19:09.867Z,7.75
2023-01-07T14:22:29.813Z,7.26
2023-01-07T14:25:50.468Z,7.20
2023-01-07T14:29:33.143Z,6.70
2023-01-07T14:32:42.940Z,6.61
2023-01-07T14:36:00.845Z,6.63
2023-01-07T14:39:27.184Z,6.10
2023-01-07T14:42:44.851Z,5.34
2023-01-07T14:45:56.059Z,5.66
2023-01-07T14:49:27.585Z,5.63
2023-01-07T14:53:29.891Z,5.33
2023-01-07T14:56:50.547Z,5.34
2023-01-07T15:00:25.146Z,5.43
2023-01-07T15:04:01.250Z,4.83
2023-01-07T15:07:17.670Z,4.72
2023-01-07T15:10:44.505Z,4.77
2023-01-07T15:14:15.870Z,4.79
2023-01-07T15:17:22.198Z,4.57
2023-01-07T15:20:46.344Z,4.47
2023-01-07T15:24:02.793Z,3.96
2023-01-07T15:27:18.866Z,3.96
2023-01-07T15:30:44.249Z,3.87
2023-01-07T15:34:07.531Z,3.58
2023-01-07T15:37:15.541Z,3.68
2023-01-07T15:40:26.537Z,3.57
2023-01-07T15:43:33.499Z,3.69
2023-01-07T15:46:41.932Z,3.50
2023-01-07T15:49:48.353Z,2.86
2023-01-07T15:52:56.172Z,2.86
2023-01-07T15:56:06.795Z,3.14
2023-01-07T15:59:16.592Z,2.68
2023-01-07T16:02:27.909Z,2.37
2023-01-07T16:05:38.085Z,2.46
2023-01-07T16:08:45.907Z,2.45
2023-01-07T16:11:53.686Z,2.29
2023-01-07T16:15:00.454Z,2.42
2023-01-07T16:18:19.071Z,2.36
2023-01-07T16:21:27.634Z,2.24
2023-01-07T16:24:34.122Z,1.90
2023-01-07T16:27:41.868Z,1.88
2023-01-07T16:30:49.337Z,1.69
2023-01-07T16:33:58.273Z,1.53
2023-01-07T16:37:08.203Z,1.70
2023-01-07T16:40:21.855Z,1.77
2023-01-07T16:43:44.758Z,1.85
2023-01-07T16:47:07.696Z,1.83
2023-01-07T16:50:37.571Z,1.63
2023-01-07T16:53:43.621Z,1.58
2023-01-07T16:56:50.355Z,1.62
2023-01-07T17:00:01.782Z,1.51
2023-01-07T17:03:13.497Z,1.47
2023-01-07T17:06:24.950Z,1.29
2023-01-07T17:09:37.130Z,0.81
2023-01-07T17:12:43.594Z,0.79
2023-01-07T17:15:51.740Z,1.06
2023-01-07T17:18:59.620Z,1.05
2023-01-07T17:22:28.679Z,1.07
2023-01-07T17:25:35.890Z,0.56
2023-01-07T17:28:48.262Z,0.47
2023-01-07T17:31:55.992Z,0.56
2023-01-07T17:35:04.442Z,0.62
2023-01-07T17:38:13.828Z,0.55
2023-01-07T17:41:39.559Z,0.47
2023-01-07T17:44:45.912Z,-0.06
2023-01-07T17:47:54.028Z,0.19
2023-01-07T17:51:01.566Z,-0.08
2023-01-07T17:54:08.752Z,0.21
2023-01-07T17:57:14.861Z,0.38
2023-01-07T18:00:26.418Z,0.02
2023-01-07T18:03:34.062Z,0.00
2023-01-07T18:06:42.992Z,0.39
2023-01-07T18:09:49.512Z,0.44
2023-01-07T18:12:55.849Z,-0.05
2023-01-07T18:16:01.963Z,0.33
2023-01-07T18:19:12.899Z,0.41
2023-01-07T18:22:20.731Z,0.07
2023-01-07T18:25:27.069Z,-0.01
2023-01-07T18:28:33.140Z,-0.63
2023-01-07T18:31:42.736Z,-1.06
2023-01-07T18:34:50.409Z,-0.80
2023-01-07T18:37:57.295Z,-0.39
2023-01-07T18:41:03.597Z,-0.08
2023-01-07T18:44:09.998Z,-0.19
2023-01-07T18:47:16.064Z,-0.06
2023-01-07T18:50:24.716Z,-0.33
2023-01-07T18:53:30.984Z,-0.55
2023-01-07T18:56:37.174Z,-0.42
2023-01-07T18:59:43.558Z,-0.33
2023-01-07T19:02:49.943Z,-0.58
2023-01-07T19:05:59.070Z,-0.69
2023-01-07T19:09:05.530Z,-0.07
2023-01-07T19:12:12.570Z,-0.45
2023-01-07T19:15:19.516Z,-0.85
2023-01-07T19:18:26.283Z,-1.19
2023-01-07T19:21:34.129Z,-1.31
2023-01-07T19:24:40.775Z,-1.23
2023-01-07T19:27:47.067Z,-1.28
2023-01-07T19:30:53.707Z,-1.40
2023-01-07T19:34:00.195Z,-1.39
2023-01-07T19:37:07.786Z,-1.40
2023-01-07T19:40:14.652Z,-0.83
2023-01-07T19:43:21.190Z,-0.55
2023-01-07T19:46:28.528Z,-0.54
2023-01-07T19:49:36.173Z,-0.74
2023-01-07T19:52:44.414Z,-0.75
2023-01-07T19:55:52.198Z,-0.68
2023-01-07T19:58:59.338Z,-0.67
2023-01-07T20:02:05.952Z,-1.16
2023-01-07T20:05:12.186Z,-1.22
2023-01-07T20:08:19.701Z,-1.10
2023-01-07T20:11:26.477Z,-1.72
2023-01-07T20:14:32.623Z,-1.67
2023-01-07T20:17:38.903Z,-1.65
2023-01-07T20:20:44.992Z,-1.69
2023-01-07T20:23:53.173Z,-1.67
2023-01-07T20:26:59.207Z,-2.07
2023-01-07T20:30:06.501Z,-2.04
2023-01-07T20:33:12.718Z,-1.53
2023-01-07T20:36:20.450Z,-1.29
2023-01-07T20:39:28.480Z,-1.72
2023-01-07T20:42:34.916Z,-1.74
2023-01-07T20:45:41.222Z,-1.73
2023-01-07T20:48:47.586Z,-1.49
2023-01-07T20:51:54.040Z,-1.50
2023-01-07T20:55:02.176Z,-1.61
2023-01-07T20:58:08.863Z,-1.69
2023-01-07T21:01:17.811Z,-2.03
2023-01-07T21:04:24.517Z,-1.68
2023-01-07T21:07:30.805Z,-1.85
2023-01-07T21:10:39.325Z,-1.55
2023-01-07T21:13:45.797Z,-1.51
2023-01-07T21:16:51.997Z,-1.68
2023-01-07T21:19:58.283Z,-1.57
2023-01-07T21:23:04.507Z,-2.19
2023-01-07T21:26:13.477Z,-1.93
2023-01-07T21:29:20.216Z,-1.46
2023-01-07T21:32:26.798Z,-2.10
2023-01-07T21:35:33.195Z,-2.09
2023-01-07T21:38:39.466Z,-2.25
2023-01-07T21:41:46.921Z,-2.24
2023-01-07T21:44:53.206Z,-1.79
2023-01-07T21:47:59.356Z,-2.11
2023-01-07T21:51:07.475Z,-2.31
2023-01-07T21:54:13.802Z,-2.36
2023-01-07T21:57:21.464Z,-2.43
2023-01-07T22:00:27.861Z,-2.85
2023-01-07T22:03:34.461Z,-3.01
2023-01-07T22:06:41.155Z,-2.83
2023-01-07T22:09:48.210Z,-2.67
2023-01-07T22:12:55.960Z,-2.24
2023-01-07T22:16:02.055Z,-1.91
2023-01-07T22:19:08.679Z,-1.70
2023-01-07T22:22:16.788Z,-2.17
2023-01-07T22:25:23.106Z,-1.79
2023-01-07T22:28:33.576Z,-1.91
2023-01-07T22:31:39.800Z,-2.19
2023-01-07T22:34:46.142Z,-2.49
2023-01-07T22:37:53.203Z,-3.05
2023-01-07T22:41:00.160Z,-3.04
2023-01-07T22:44:14.354Z,-3.73
2023-01-07T22:47:26.458Z,-2.76
2023-01-07T22:50:33.497Z,-2.52
2023-01-07T22:53:39.660Z,-2.63
2023-01-07T22:56:46.652Z,-2.38
2023-01-07T22:59:54.521Z,-2.68
2023-01-07T23:03:00.683Z,-2.30
2023-01-07T23:06:07.567Z,-2.27
2023-01-07T23:09:14.095Z,-2.19
2023-01-07T23:12:20.473Z,-2.25
2023-01-07T23:15:28.320Z,-2.44
2023-01-07T23:18:35.104Z,-3.24
2023-01-07T23:21:42.676Z,-3.66
2023-01-07T23:24:48.980Z,-3.71
2023-01-07T23:27:55.972Z,-3.03
2023-01-07T23:31:04.312Z,-2.86
2023-01-07T23:34:11.204Z,-2.83
2023-01-07T23:37:17.940Z,-2.52
2023-01-07T23:40:24.814Z,-2.42
2023-01-07T23:43:31.900Z,-2.84
2023-01-07T23:46:39.868Z,-2.56
2023-01-07T23:49:46.321Z,-2.51
2023-01-07T23:52:52.729Z,-3.56
2023-01-07T23:56:03.219Z,-3.85
2023-01-07T23:59:10.467Z,-3.86
